createdAt,value
2023-01-17T00:02:21.561Z,0.30
2023-01-17T00:05:06.981Z,0.60
2023-01-17T00:07:52.998Z,0.52
2023-01-17T00:10:24.411Z,0.65
2023-01-17T00:12:58.762Z,0.95
2023-01-17T00:15:29.659Z,0.85
2023-01-17T00:17:57.532Z,0.85
2023-01-17T00:20:48.524Z,0.95
2023-01-17T00:23:41.425Z,1.05
2023-01-17T00:26:26.649Z,1.20
2023-01-17T00:28:53.717Z,1.40
2023-01-17T00:31:20.824Z,1.85
2023-01-17T00:33:47.782Z,1.40
2023-01-17T00:36:14.790Z,1.73
2023-01-17T00:38:41.843Z,1.38
2023-01-17T00:41:12.324Z,1.80
2023-01-17T00:43:58.455Z,1.83
2023-01-17T00:46:44.891Z,1.23
2023-01-17T00:49:30.788Z,0.98
2023-01-17T00:52:16.711Z,0.25
2023-01-17T00:55:02.487Z,0.20
2023-01-17T00:57:48.348Z,0.20
2023-01-17T01:00:37.595Z,0.30
2023-01-17T01:03:30.871Z,0.20
2023-01-17T01:06:16.713Z,0.20
2023-01-17T01:09:02.569Z,0.28
2023-01-17T01:11:48.475Z,0.20
2023-01-17T01:14:34.431Z,0.20
2023-01-17T01:17:20.364Z,0.20
2023-01-17T01:20:06.289Z,0.20
2023-01-17T01:22:52.156Z,0.20
2023-01-17T01:25:38.145Z,0.32
2023-01-17T01:28:32.137Z,0.40
2023-01-17T01:31:20.118Z,0.50
2023-01-17T01:33:47.648Z,0.68
2023-01-17T01:36:15.563Z,0.90
2023-01-17T01:38:42.992Z,1.38
2023-01-17T01:41:10.032Z,0.80
2023-01-17T01:44:26.828Z,0.90
2023-01-17T01:46:54.304Z,0.70
2023-01-17T01:49:28.402Z,0.90
2023-01-17T01:52:05.012Z,0.70
2023-01-17T01:54:44.608Z,0.70
2023-01-17T01:57:17.794Z,0.80
2023-01-17T01:59:56.188Z,0.55
2023-01-17T02:02:23.252Z,0.70
2023-01-17T02:04:51.901Z,0.70
2023-01-17T02:07:31.908Z,0.75
2023-01-17T02:09:59.044Z,0.50
2023-01-17T02:12:26.196Z,1.10
2023-01-17T02:14:53.227Z,0.50
2023-01-17T02:17:23.155Z,0.60
2023-01-17T02:20:09.043Z,0.60
2023-01-17T02:22:56.634Z,0.93
2023-01-17T02:25:54.543Z,2.00
2023-01-17T02:29:12.343Z,3.08
2023-01-17T02:31:55.185Z,3.10
2023-01-17T02:34:32.700Z,2.65
2023-01-17T02:37:09.980Z,2.15
2023-01-17T02:39:58.258Z,2.00
2023-01-17T02:42:34.115Z,2.28
2023-01-17T02:45:03.338Z,2.00
2023-01-17T02:47:32.285Z,2.10
2023-01-17T02:50:15.701Z,1.92
2023-01-17T02:53:19.538Z,1.90
2023-01-17T02:56:10.013Z,1.60
2023-01-17T02:59:07.434Z,2.13
2023-01-17T03:01:59.204Z,2.10
2023-01-17T03:04:45.529Z,2.58
2023-01-17T03:07:22.553Z,2.83
2023-01-17T03:09:59.467Z,3.65
2023-01-17T03:12:30.584Z,3.55
2023-01-17T03:14:58.125Z,3.75
2023-01-17T03:17:32.971Z,4.50
2023-01-17T03:19:59.941Z,5.20
2023-01-17T03:22:26.943Z,4.93
2023-01-17T03:24:54.623Z,4.95
2023-01-17T03:27:21.595Z,5.57
2023-01-17T03:29:48.618Z,5.25
2023-01-17T03:32:15.568Z,5.40
2023-01-17T03:34:42.507Z,5.30
2023-01-17T03:37:09.451Z,5.38
2023-01-17T03:39:36.652Z,5.53
2023-01-17T03:42:03.672Z,5.55
2023-01-17T03:44:30.768Z,5.00
2023-01-17T03:46:57.744Z,5.95
2023-01-17T03:49:24.745Z,6.03
2023-01-17T03:51:51.729Z,6.13
2023-01-17T03:54:18.755Z,5.95
2023-01-17T03:56:45.797Z,5.70
2023-01-17T03:59:13.489Z,5.82
2023-01-17T04:01:40.643Z,5.20
2023-01-17T04:04:07.732Z,4.18
2023-01-17T04:06:34.756Z,4.30
2023-01-17T04:09:01.819Z,3.58
2023-01-17T04:11:28.817Z,3.60
2023-01-17T04:13:55.832Z,3.80
2023-01-17T04:16:31.019Z,3.95
2023-01-17T04:18:58.366Z,4.00
2023-01-17T04:21:25.388Z,3.47
2023-01-17T04:23:52.473Z,3.10
2023-01-17T04:26:19.514Z,2.85
2023-01-17T04:28:46.613Z,2.75
2023-01-17T04:31:17.609Z,2.38
2023-01-17T04:33:44.781Z,2.58
2023-01-17T04:36:11.825Z,1.98
2023-01-17T04:38:38.956Z,2.00
2023-01-17T04:41:05.920Z,1.77
2023-01-17T04:43:33.049Z,1.67
2023-01-17T04:46:00.033Z,1.70
2023-01-17T04:48:27.604Z,1.70
2023-01-17T04:51:02.542Z,1.50
2023-01-17T04:53:29.563Z,1.60
2023-01-17T04:55:57.685Z,1.60
2023-01-17T04:58:24.664Z,1.55
2023-01-17T05:00:51.892Z,1.42
2023-01-17T05:03:22.049Z,1.77
2023-01-17T05:05:49.423Z,1.98
2023-01-17T05:08:16.488Z,1.85
2023-01-17T05:10:47.063Z,1.30
2023-01-17T05:13:14.755Z,1.42
2023-01-17T05:15:41.799Z,1.30
2023-01-17T05:18:14.904Z,1.45
2023-01-17T05:20:42.516Z,1.85
2023-01-17T05:23:09.610Z,1.80
2023-01-17T05:25:36.972Z,2.22
2023-01-17T05:28:04.305Z,2.22
2023-01-17T05:30:33.013Z,1.92
2023-01-17T05:33:00.018Z,2.40
2023-01-17T05:35:32.597Z,2.30
2023-01-17T05:37:59.783Z,2.33
2023-01-17T05:40:30.979Z,2.40
2023-01-17T05:43:00.754Z,2.85
2023-01-17T05:45:30.553Z,2.45
2023-01-17T05:47:58.439Z,2.45
2023-01-17T05:50:34.164Z,2.83
2023-01-17T05:53:08.610Z,3.33
2023-01-17T05:55:36.875Z,3.10
2023-01-17T05:58:05.341Z,3.53
2023-01-17T06:00:32.625Z,3.55
2023-01-17T06:03:01.487Z,3.33
2023-01-17T06:05:30.052Z,4.53
2023-01-17T06:07:57.971Z,5.10
2023-01-17T06:10:26.212Z,5.40
2023-01-17T06:13:08.738Z,6.32
2023-01-17T06:15:38.017Z,6.13
2023-01-17T06:18:12.309Z,6.20
2023-01-17T06:20:40.451Z,6.63
2023-01-17T06:23:11.809Z,6.78
2023-01-17T06:25:44.046Z,7.03
2023-01-17T06:28:14.477Z,7.30
2023-01-17T06:30:43.907Z,7.28
2023-01-17T06:33:12.791Z,7.25
2023-01-17T06:35:41.058Z,7.95
2023-01-17T06:38:09.946Z,8.75
2023-01-17T06:40:37.033Z,9.13
2023-01-17T06:43:05.412Z,8.52
2023-01-17T06:45:35.544Z,9.50
2023-01-17T06:48:05.250Z,10.05
2023-01-17T06:50:34.058Z,9.50
2023-01-17T06:53:05.223Z,11.75
2023-01-17T06:55:35.030Z,12.77
2023-01-17T06:58:03.148Z,13.32
2023-01-17T07:00:40.379Z,13.30
2023-01-17T07:03:27.139Z,13.05
2023-01-17T07:05:54.598Z,14.68
2023-01-17T07:08:21.695Z,14.48
2023-01-17T07:10:49.317Z,15.48
2023-01-17T07:13:16.668Z,14.50
2023-01-17T07:15:43.772Z,14.80
2023-01-17T07:18:10.805Z,15.55
2023-01-17T07:20:38.506Z,15.55
2023-01-17T07:23:06.695Z,16.55
2023-01-17T07:25:33.840Z,15.90
2023-01-17T07:28:00.824Z,15.52
2023-01-17T07:30:27.946Z,15.88
2023-01-17T07:32:55.770Z,14.57
2023-01-17T07:35:27.980Z,15.38
2023-01-17T07:37:55.359Z,16.13
2023-01-17T07:40:23.078Z,15.90
2023-01-17T07:42:50.160Z,16.27
2023-01-17T07:45:17.992Z,16.40
2023-01-17T07:47:45.133Z,16.25
2023-01-17T07:50:13.653Z,18.13
2023-01-17T07:52:41.352Z,16.85
2023-01-17T07:55:09.941Z,17.30
2023-01-17T07:57:36.968Z,17.70
2023-01-17T08:00:05.339Z,17.65
2023-01-17T08:02:39.411Z,17.55
2023-01-17T08:05:06.738Z,18.10
2023-01-17T08:07:34.270Z,16.88
2023-01-17T08:10:01.598Z,17.33
2023-01-17T08:12:29.610Z,17.80
2023-01-17T08:14:56.661Z,19.10
2023-01-17T08:17:23.686Z,17.65
2023-01-17T08:19:52.165Z,17.88
2023-01-17T08:22:19.948Z,17.88
2023-01-17T08:24:47.539Z,18.80
2023-01-17T08:27:15.211Z,16.75
2023-01-17T08:29:47.110Z,16.90
2023-01-17T08:32:15.735Z,17.02
2023-01-17T08:34:42.687Z,17.00
2023-01-17T08:37:09.656Z,15.57
2023-01-17T08:39:36.605Z,15.80
2023-01-17T08:42:03.827Z,15.85
2023-01-17T08:44:30.876Z,15.32
2023-01-17T08:46:58.304Z,15.90
2023-01-17T08:49:25.827Z,16.02
2023-01-17T08:51:52.880Z,15.20
2023-01-17T08:54:19.991Z,14.25
2023-01-17T08:56:47.489Z,14.63
2023-01-17T08:59:14.729Z,13.93
2023-01-17T09:01:42.086Z,13.50
2023-01-17T09:04:09.667Z,13.50
2023-01-17T09:06:45.515Z,13.27
2023-01-17T09:09:13.692Z,13.52
2023-01-17T09:11:40.742Z,13.13
2023-01-17T09:14:07.861Z,12.15
2023-01-17T09:16:35.065Z,12.93
2023-01-17T09:19:02.172Z,12.02
2023-01-17T09:21:29.185Z,12.75
2023-01-17T09:23:56.335Z,12.50
2023-01-17T09:26:28.471Z,47.50
2023-01-17T09:28:56.160Z,13.27
2023-01-17T09:31:24.170Z,12.77
2023-01-17T09:33:54.106Z,15.45
2023-01-17T09:36:22.259Z,13.30
2023-01-17T09:38:49.578Z,16.38
2023-01-17T09:41:47.057Z,13.20
2023-01-17T09:44:38.816Z,13.75
2023-01-17T09:47:37.096Z,13.90
2023-01-17T09:50:36.410Z,14.52
2023-01-17T09:53:11.872Z,14.25
2023-01-17T09:56:03.648Z,13.45
2023-01-17T09:59:08.574Z,12.70
2023-01-17T10:02:04.233Z,12.82
2023-01-17T10:04:48.993Z,13.20
2023-01-17T10:07:29.633Z,13.82
2023-01-17T10:10:28.053Z,12.70
2023-01-17T10:13:24.187Z,13.88
2023-01-17T10:16:00.152Z,71.40
2023-01-17T10:18:56.502Z,13.60
2023-01-17T10:22:21.025Z,11.90
2023-01-17T10:25:28.323Z,12.73
2023-01-17T10:28:09.901Z,11.55
2023-01-17T10:30:46.075Z,11.10
2023-01-17T10:33:18.650Z,11.20
2023-01-17T10:36:10.138Z,10.88
2023-01-17T10:38:41.710Z,12.98
2023-01-17T10:41:24.176Z,11.23
2023-01-17T10:44:25.127Z,12.07
2023-01-17T10:47:20.554Z,11.35
2023-01-17T10:50:01.907Z,11.25
2023-01-17T10:52:58.956Z,13.02
2023-01-17T10:55:48.394Z,9.88
2023-01-17T10:58:15.479Z,10.23
2023-01-17T11:01:18.982Z,10.07
2023-01-17T11:03:55.058Z,10.18
2023-01-17T11:06:27.821Z,9.05
2023-01-17T11:09:10.702Z,8.98
2023-01-17T11:11:48.659Z,9.63
2023-01-17T11:14:26.128Z,10.85
2023-01-17T11:17:07.083Z,9.88
2023-01-17T11:19:36.410Z,8.93
2023-01-17T11:22:07.324Z,8.98
2023-01-17T11:24:47.186Z,8.70
2023-01-17T11:27:58.379Z,7.72
2023-01-17T11:30:29.345Z,7.55
2023-01-17T11:33:07.121Z,8.20
2023-01-17T11:35:37.566Z,7.40
2023-01-17T11:38:16.429Z,15.02
2023-01-17T11:40:46.669Z,8.98
2023-01-17T11:43:30.460Z,6.05
2023-01-17T11:46:14.633Z,8.13
2023-01-17T11:48:41.622Z,8.23
2023-01-17T11:51:22.693Z,6.47
2023-01-17T11:53:50.327Z,10.63
2023-01-17T11:56:19.506Z,12.88
2023-01-17T11:58:47.305Z,5.70
2023-01-17T12:01:37.149Z,20.17
2023-01-17T12:04:45.115Z,5.60
2023-01-17T12:07:37.977Z,5.57
2023-01-17T12:10:44.726Z,5.15
2023-01-17T12:13:57.819Z,4.70
2023-01-17T12:16:50.544Z,5.10
2023-01-17T12:19:37.989Z,4.63
2023-01-17T12:22:42.125Z,5.60
2023-01-17T12:25:39.556Z,3.83
2023-01-17T12:28:37.145Z,4.20
2023-01-17T12:31:29.763Z,4.53
2023-01-17T12:34:02.636Z,4.22
2023-01-17T12:36:42.575Z,5.40
2023-01-17T12:39:14.141Z,4.68
2023-01-17T12:42:04.343Z,4.88
2023-01-17T12:44:58.415Z,4.18
2023-01-17T12:47:26.091Z,4.20
2023-01-17T12:50:30.768Z,4.40
2023-01-17T12:53:21.960Z,3.93
2023-01-17T12:55:58.644Z,3.58
2023-01-17T12:58:34.863Z,4.28
2023-01-17T13:01:19.869Z,4.70
2023-01-17T13:04:30.516Z,3.85
2023-01-17T13:07:10.720Z,3.70
2023-01-17T13:09:59.012Z,4.15
2023-01-17T13:12:34.508Z,3.75
2023-01-17T13:15:03.908Z,3.45
2023-01-17T13:17:46.356Z,3.40
2023-01-17T13:20:31.817Z,3.28
2023-01-17T13:23:16.763Z,2.80
2023-01-17T13:28:45.531Z,2.92
2023-01-17T13:34:14.077Z,2.58
2023-01-17T13:37:20.152Z,2.40
2023-01-17T13:40:29.728Z,3.40
2023-01-17T13:43:03.754Z,2.80
2023-01-17T13:45:35.718Z,3.38
2023-01-17T13:48:18.700Z,3.15
2023-01-17T13:50:58.382Z,2.55
2023-01-17T13:53:34.574Z,2.67
2023-01-17T13:56:12.873Z,2.92
2023-01-17T13:58:54.370Z,3.00
2023-01-17T14:01:24.584Z,2.90
2023-01-17T14:03:51.968Z,2.80
2023-01-17T14:06:48.020Z,2.80
2023-01-17T14:09:40.936Z,2.50
2023-01-17T14:12:10.810Z,2.90
2023-01-17T14:14:40.867Z,2.30
2023-01-17T14:17:23.605Z,2.60
2023-01-17T14:19:55.024Z,2.60
2023-01-17T14:22:26.184Z,2.53
2023-01-17T14:25:18.063Z,2.00
2023-01-17T14:27:58.462Z,2.22
2023-01-17T14:30:36.553Z,1.50
2023-01-17T14:33:08.587Z,1.60
2023-01-17T14:35:51.240Z,1.83
2023-01-17T14:38:34.100Z,1.40
2023-01-17T14:41:13.101Z,1.58
2023-01-17T14:43:43.515Z,1.40
2023-01-17T14:46:23.880Z,1.70
2023-01-17T14:49:00.157Z,2.70
2023-01-17T14:51:28.278Z,2.65
2023-01-17T14:53:59.311Z,2.10
2023-01-17T14:56:29.495Z,1.50
2023-01-17T14:59:17.253Z,1.70
2023-01-17T15:02:06.231Z,1.70
2023-01-17T15:04:39.311Z,1.45
2023-01-17T15:07:14.820Z,2.40
2023-01-17T15:09:44.609Z,1.60
2023-01-17T15:12:16.417Z,1.75
2023-01-17T15:14:46.793Z,1.90
2023-01-17T15:17:26.448Z,1.63
2023-01-17T15:20:08.309Z,1.70
2023-01-17T15:22:35.872Z,1.83
2023-01-17T15:25:03.687Z,1.92
2023-01-17T15:27:32.238Z,2.00
2023-01-17T15:30:02.292Z,1.83
2023-01-17T15:32:32.587Z,2.13
2023-01-17T15:35:02.742Z,2.05
2023-01-17T15:37:32.758Z,2.15
2023-01-17T15:40:20.644Z,2.28
2023-01-17T15:42:56.709Z,2.30
2023-01-17T15:45:29.927Z,2.00
2023-01-17T15:47:59.266Z,2.00
2023-01-17T15:50:38.538Z,1.92
2023-01-17T15:53:29.673Z,1.80
2023-01-17T15:55:57.793Z,1.83
2023-01-17T15:58:30.292Z,1.83
2023-01-17T16:00:57.779Z,3.35
2023-01-17T16:03:30.616Z,4.45
2023-01-17T16:06:02.853Z,2.30
2023-01-17T16:08:34.701Z,4.88
2023-01-17T16:11:06.339Z,3.55
2023-01-17T16:13:38.696Z,24.92
2023-01-17T16:16:21.912Z,16.92
2023-01-17T16:18:58.924Z,2.72
2023-01-17T16:21:31.454Z,29.85
2023-01-17T16:24:00.444Z,7.20
2023-01-17T16:26:29.273Z,3.65
2023-01-17T16:28:56.856Z,3.00
2023-01-17T16:31:24.081Z,3.60
2023-01-17T16:33:51.486Z,3.65
2023-01-17T16:36:20.865Z,3.40
2023-01-17T16:38:51.642Z,3.58
2023-01-17T16:41:20.148Z,4.18
2023-01-17T16:44:00.635Z,3.83
2023-01-17T16:46:29.706Z,3.88
2023-01-17T16:48:59.844Z,4.20
2023-01-17T16:51:27.075Z,4.63
2023-01-17T16:53:54.116Z,4.90
2023-01-17T16:56:21.218Z,5.38
2023-01-17T16:58:48.531Z,4.90
2023-01-17T17:01:20.758Z,5.47
2023-01-17T17:03:48.132Z,6.00
2023-01-17T17:06:15.183Z,5.30
2023-01-17T17:08:43.228Z,6.47
2023-01-17T17:11:20.826Z,5.38
2023-01-17T17:13:50.303Z,5.22
2023-01-17T17:16:30.216Z,6.10
2023-01-17T17:19:01.480Z,5.88
2023-01-17T17:21:31.714Z,6.20
2023-01-17T17:24:01.285Z,5.57
2023-01-17T17:26:36.346Z,5.80
2023-01-17T17:29:06.292Z,5.82
2023-01-17T17:31:33.722Z,5.47
2023-01-17T17:34:03.288Z,6.22
2023-01-17T17:36:31.212Z,5.25
2023-01-17T17:38:59.129Z,5.25
2023-01-17T17:41:33.639Z,5.28
2023-01-17T17:46:34.976Z,4.95
2023-01-17T17:49:02.651Z,6.00
2023-01-17T17:51:38.860Z,5.35
2023-01-17T17:54:10.496Z,5.75
2023-01-17T17:56:39.339Z,5.47
2023-01-17T17:59:09.308Z,5.43
2023-01-17T18:01:40.920Z,5.72
2023-01-17T18:04:09.125Z,6.03
2023-01-17T18:06:36.784Z,6.05
2023-01-17T18:09:10.502Z,5.95
2023-01-17T18:11:40.816Z,5.60
2023-01-17T18:14:12.497Z,6.22
2023-01-17T18:16:47.032Z,6.22
2023-01-17T18:21:45.669Z,5.78
2023-01-17T18:24:19.504Z,5.15
2023-01-17T18:26:57.685Z,5.95
2023-01-17T18:29:27.101Z,5.20
2023-01-17T18:31:55.732Z,5.78
2023-01-17T18:34:29.071Z,5.75
2023-01-17T18:36:57.541Z,5.88
2023-01-17T18:39:28.360Z,7.20
2023-01-17T18:41:56.259Z,7.35
2023-01-17T18:44:27.395Z,7.15
2023-01-17T18:46:55.153Z,6.35
2023-01-17T18:49:24.555Z,6.35
2023-01-17T18:51:51.880Z,5.97
2023-01-17T18:54:20.350Z,6.18
2023-01-17T18:56:47.921Z,5.78
2023-01-17T18:59:18.442Z,5.97
2023-01-17T19:01:46.252Z,5.88
2023-01-17T19:04:16.009Z,6.65
2023-01-17T19:06:48.261Z,8.52
2023-01-17T19:09:17.326Z,8.73
2023-01-17T19:11:51.334Z,10.05
2023-01-17T19:14:23.743Z,10.27
2023-01-17T19:16:54.285Z,10.75
2023-01-17T19:19:21.358Z,14.25
2023-01-17T19:21:52.038Z,15.32
2023-01-17T19:24:19.147Z,17.05
2023-01-17T19:26:52.831Z,16.38
2023-01-17T19:29:20.005Z,15.48
2023-01-17T19:31:49.234Z,14.63
2023-01-17T19:34:19.852Z,13.45
2023-01-17T19:36:47.216Z,11.48
2023-01-17T19:39:15.439Z,11.77
2023-01-17T19:41:45.506Z,11.77
2023-01-17T19:44:14.847Z,11.23
2023-01-17T19:46:42.286Z,11.57
2023-01-17T19:49:10.005Z,11.02
2023-01-17T19:51:39.348Z,11.50
2023-01-17T19:54:07.857Z,11.73
2023-01-17T19:56:35.141Z,13.10
2023-01-17T19:59:02.510Z,12.50
2023-01-17T20:01:33.191Z,13.90
2023-01-17T20:04:02.896Z,13.98
2023-01-17T20:06:35.906Z,12.95
2023-01-17T20:09:05.967Z,14.85
2023-01-17T20:11:33.025Z,14.05
2023-01-17T20:14:00.640Z,14.98
2023-01-17T20:16:31.755Z,14.80
2023-01-17T20:19:02.327Z,15.80
2023-01-17T20:21:31.987Z,15.13
2023-01-17T20:24:03.247Z,14.43
2023-01-17T20:26:35.028Z,15.80
2023-01-17T20:29:11.710Z,13.98
2023-01-17T20:31:42.134Z,15.90
2023-01-17T20:34:12.721Z,14.60
2023-01-17T20:36:44.485Z,14.98
2023-01-17T20:39:14.813Z,13.80
2023-01-17T20:41:44.814Z,25.58
2023-01-17T20:44:15.545Z,14.00
2023-01-17T20:46:43.770Z,14.65
2023-01-17T20:49:15.039Z,14.77
2023-01-17T20:51:44.742Z,13.10
2023-01-17T20:54:18.756Z,14.38
2023-01-17T20:56:47.770Z,14.27
2023-01-17T20:59:23.829Z,16.45
2023-01-17T21:01:51.898Z,18.67
2023-01-17T21:04:25.511Z,18.42
2023-01-17T21:06:53.369Z,22.87
2023-01-17T21:09:21.381Z,22.27
2023-01-17T21:11:50.489Z,22.83
2023-01-17T21:14:18.065Z,22.92
2023-01-17T21:16:45.097Z,19.55
2023-01-17T21:19:14.951Z,19.40
2023-01-17T21:21:41.992Z,16.60
2023-01-17T21:24:09.439Z,16.52
2023-01-17T21:26:38.845Z,15.20
2023-01-17T21:29:05.869Z,15.60
2023-01-17T21:31:35.111Z,15.02
2023-01-17T21:34:08.074Z,16.17
2023-01-17T21:36:39.255Z,15.23
2023-01-17T21:39:13.045Z,15.60
2023-01-17T21:41:41.868Z,16.70
2023-01-17T21:44:15.751Z,15.27
2023-01-17T21:46:42.772Z,17.55
2023-01-17T21:49:11.846Z,16.45
2023-01-17T21:51:53.319Z,18.48
2023-01-17T21:54:45.532Z,17.00
2023-01-17T21:57:35.075Z,15.38
2023-01-17T22:00:07.378Z,15.07
2023-01-17T22:02:47.804Z,15.90
2023-01-17T22:05:16.854Z,15.63
2023-01-17T22:08:04.973Z,14.77
2023-01-17T22:10:32.552Z,14.75
2023-01-17T22:12:59.625Z,13.30
2023-01-17T22:15:26.640Z,18.65
2023-01-17T22:17:54.043Z,17.67
2023-01-17T22:20:21.403Z,21.52
2023-01-17T22:22:48.473Z,30.85
2023-01-17T22:25:15.666Z,23.52
2023-01-17T22:27:42.640Z,24.40
2023-01-17T22:30:13.003Z,21.02
2023-01-17T22:32:40.470Z,16.15
2023-01-17T22:35:09.453Z,15.02
2023-01-17T22:37:36.563Z,14.90
2023-01-17T22:40:05.095Z,13.48
2023-01-17T22:42:34.905Z,12.90
2023-01-17T22:45:02.090Z,12.38
2023-01-17T22:47:29.263Z,13.35
2023-01-17T22:49:56.692Z,13.20
2023-01-17T22:52:23.804Z,12.35
2023-01-17T22:54:51.175Z,13.18
2023-01-17T22:57:18.594Z,13.82
2023-01-17T22:59:45.587Z,12.73
2023-01-17T23:02:12.820Z,13.38
2023-01-17T23:04:40.486Z,13.27
2023-01-17T23:07:07.579Z,13.57
2023-01-17T23:09:34.612Z,13.75
2023-01-17T23:12:01.683Z,14.57
2023-01-17T23:14:54.474Z,13.70
2023-01-17T23:17:42.866Z,13.75
2023-01-17T23:20:11.372Z,12.65
2023-01-17T23:22:38.413Z,13.23
2023-01-17T23:25:13.092Z,14.00
2023-01-17T23:28:05.490Z,13.27
2023-01-17T23:30:38.055Z,13.68
2023-01-17T23:33:12.075Z,13.55
2023-01-17T23:35:42.589Z,13.38
2023-01-17T23:38:26.518Z,12.85
2023-01-17T23:41:24.864Z,12.37
2023-01-17T23:43:54.299Z,12.40
2023-01-17T23:46:22.833Z,12.93
2023-01-17T23:48:50.032Z,12.52
2023-01-17T23:51:17.446Z,13.35
2023-01-17T23:53:44.468Z,13.25
2023-01-17T23:56:20.747Z,13.50
2023-01-17T23:58:48.084Z,13.35
